sensor_id;sensor_type;location;lat;lon;timestamp;P1;durP1;ratioP1;P2;durP2;ratioP2
55672;SDS011;41554;45.366;20.400;2022-12-18T00:03:46;109.65;;;57.28;;
55672;SDS011;41554;45.366;20.400;2022-12-18T00:06:13;80.07;;;43.22;;
55672;SDS011;41554;45.366;20.400;2022-12-18T00:08:40;106.78;;;52.75;;
55672;SDS011;41554;45.366;20.400;2022-12-18T00:11:06;77.55;;;37.25;;
55672;SDS011;41554;45.366;20.400;2022-12-18T00:13:33;66.35;;;34.78;;
55672;SDS011;41554;45.366;20.400;2022-12-18T00:16:03;65.65;;;35.95;;
55672;SDS011;41554;45.366;20.400;2022-12-18T00:18:29;38.15;;;25.13;;
55672;SDS011;41554;45.366;20.400;2022-12-18T00:20:58;60.47;;;31.88;;
55672;SDS011;41554;45.366;20.400;2022-12-18T00:23:24;34.13;;;21.27;;
55672;SDS011;41554;45.366;20.400;2022-12-18T00:25:51;46.88;;;27.65;;
55672;SDS011;41554;45.366;20.400;2022-12-18T00:28:17;36.15;;;21.25;;
55672;SDS011;41554;45.366;20.400;2022-12-18T00:30:43;34.60;;;20.02;;
55672;SDS011;41554;45.366;20.400;2022-12-18T00:33:09;32.72;;;21.52;;
55672;SDS011;41554;45.366;20.400;2022-12-18T00:35:35;39.47;;;24.35;;
55672;SDS011;41554;45.366;20.400;2022-12-18T00:38:01;40.88;;;25.70;;
55672;SDS011;41554;45.366;20.400;2022-12-18T00:40:27;43.80;;;24.70;;
55672;SDS011;41554;45.366;20.400;2022-12-18T00:42:53;28.35;;;22.38;;
55672;SDS011;41554;45.366;20.400;2022-12-18T00:45:31;42.13;;;23.30;;
55672;SDS011;41554;45.366;20.400;2022-12-18T00:47:57;43.03;;;21.58;;
55672;SDS011;41554;45.366;20.400;2022-12-18T00:50:23;36.22;;;20.25;;
55672;SDS011;41554;45.366;20.400;2022-12-18T00:52:50;29.55;;;19.45;;
55672;SDS011;41554;45.366;20.400;2022-12-18T00:55:16;35.08;;;22.88;;
55672;SDS011;41554;45.366;20.400;2022-12-18T00:57:42;40.80;;;26.00;;
55672;SDS011;41554;45.366;20.400;2022-12-18T01:00:10;34.78;;;21.38;;
55672;SDS011;41554;45.366;20.400;2022-12-18T01:02:36;30.77;;;22.45;;
55672;SDS011;41554;45.366;20.400;2022-12-18T01:05:03;43.05;;;23.90;;
55672;SDS011;41554;45.366;20.400;2022-12-18T01:07:29;35.88;;;21.80;;
55672;SDS011;41554;45.366;20.400;2022-12-18T01:09:55;41.22;;;25.23;;
55672;SDS011;41554;45.366;20.400;2022-12-18T01:12:21;36.45;;;21.98;;
55672;SDS011;41554;45.366;20.400;2022-12-18T01:14:47;38.72;;;23.63;;
55672;SDS011;41554;45.366;20.400;2022-12-18T01:17:13;34.95;;;22.45;;
55672;SDS011;41554;45.366;20.400;2022-12-18T01:19:39;41.72;;;21.73;;
55672;SDS011;41554;45.366;20.400;2022-12-18T01:22:05;39.28;;;22.60;;
55672;SDS011;41554;45.366;20.400;2022-12-18T01:24:31;31.15;;;20.65;;
55672;SDS011;41554;45.366;20.400;2022-12-18T01:26:58;38.50;;;25.38;;
55672;SDS011;41554;45.366;20.400;2022-12-18T01:29:24;43.78;;;27.13;;
55672;SDS011;41554;45.366;20.400;2022-12-18T01:31:50;39.08;;;26.50;;
55672;SDS011;41554;45.366;20.400;2022-12-18T01:34:16;36.40;;;20.83;;
55672;SDS011;41554;45.366;20.400;2022-12-18T01:36:42;41.50;;;24.30;;
55672;SDS011;41554;45.366;20.400;2022-12-18T01:39:12;32.97;;;22.77;;
55672;SDS011;41554;45.366;20.400;2022-12-18T01:41:38;26.63;;;15.50;;
55672;SDS011;41554;45.366;20.400;2022-12-18T01:47:38;37.22;;;23.75;;
55672;SDS011;41554;45.366;20.400;2022-12-18T01:52:34;44.47;;;22.83;;
55672;SDS011;41554;45.366;20.400;2022-12-18T01:55:00;38.15;;;24.73;;
55672;SDS011;41554;45.366;20.400;2022-12-18T01:57:28;33.88;;;21.15;;
55672;SDS011;41554;45.366;20.400;2022-12-18T01:59:55;33.20;;;22.10;;
55672;SDS011;41554;45.366;20.400;2022-12-18T02:02:22;36.78;;;22.10;;
55672;SDS011;41554;45.366;20.400;2022-12-18T02:04:48;34.33;;;21.88;;
55672;SDS011;41554;45.366;20.400;2022-12-18T02:09:51;45.08;;;25.35;;
55672;SDS011;41554;45.366;20.400;2022-12-18T02:12:22;34.03;;;19.90;;
55672;SDS011;41554;45.366;20.400;2022-12-18T02:15:09;35.22;;;21.27;;
55672;SDS011;41554;45.366;20.400;2022-12-18T02:17:41;39.83;;;25.67;;
55672;SDS011;41554;45.366;20.400;2022-12-18T02:20:24;31.55;;;19.13;;
55672;SDS011;41554;45.366;20.400;2022-12-18T02:28:04;39.85;;;24.50;;
55672;SDS011;41554;45.366;20.400;2022-12-18T02:30:32;34.72;;;21.77;;
55672;SDS011;41554;45.366;20.400;2022-12-18T02:33:00;31.50;;;20.98;;
55672;SDS011;41554;45.366;20.400;2022-12-18T02:35:27;35.80;;;23.80;;
55672;SDS011;41554;45.366;20.400;2022-12-18T02:37:54;42.78;;;26.17;;
55672;SDS011;41554;45.366;20.400;2022-12-18T02:40:22;38.92;;;26.92;;
55672;SDS011;41554;45.366;20.400;2022-12-18T02:42:49;37.40;;;26.50;;
55672;SDS011;41554;45.366;20.400;2022-12-18T02:45:15;36.97;;;23.27;;
55672;SDS011;41554;45.366;20.400;2022-12-18T02:47:42;46.60;;;25.50;;
55672;SDS011;41554;45.366;20.400;2022-12-18T03:00:31;42.95;;;24.90;;
55672;SDS011;41554;45.366;20.400;2022-12-18T03:03:01;43.33;;;26.67;;
55672;SDS011;41554;45.366;20.400;2022-12-18T03:08:37;32.92;;;23.02;;
55672;SDS011;41554;45.366;20.400;2022-12-18T03:11:08;45.83;;;24.80;;
55672;SDS011;41554;45.366;20.400;2022-12-18T03:14:08;32.92;;;20.77;;
55672;SDS011;41554;45.366;20.400;2022-12-18T03:16:28;35.10;;;22.25;;
55672;SDS011;41554;45.366;20.400;2022-12-18T03:18:58;38.75;;;22.73;;
55672;SDS011;41554;45.366;20.400;2022-12-18T03:21:26;36.08;;;23.60;;
55672;SDS011;41554;45.366;20.400;2022-12-18T03:23:54;38.17;;;25.40;;
55672;SDS011;41554;45.366;20.400;2022-12-18T03:26:21;33.13;;;22.90;;
55672;SDS011;41554;45.366;20.400;2022-12-18T03:28:50;40.85;;;22.38;;
55672;SDS011;41554;45.366;20.400;2022-12-18T03:31:16;40.33;;;22.33;;
55672;SDS011;41554;45.366;20.400;2022-12-18T03:33:47;35.17;;;20.73;;
55672;SDS011;41554;45.366;20.400;2022-12-18T03:36:16;36.45;;;20.63;;
55672;SDS011;41554;45.366;20.400;2022-12-18T03:38:42;31.45;;;19.45;;
55672;SDS011;41554;45.366;20.400;2022-12-18T03:48:48;34.90;;;23.77;;
55672;SDS011;41554;45.366;20.400;2022-12-18T03:51:30;40.67;;;21.63;;
55672;SDS011;41554;45.366;20.400;2022-12-18T03:54:00;39.42;;;23.60;;
55672;SDS011;41554;45.366;20.400;2022-12-18T03:56:28;42.25;;;24.10;;
55672;SDS011;41554;45.366;20.400;2022-12-18T03:58:55;40.15;;;20.58;;
55672;SDS011;41554;45.366;20.400;2022-12-18T04:01:25;33.90;;;19.30;;
55672;SDS011;41554;45.366;20.400;2022-12-18T04:03:54;34.92;;;22.77;;
55672;SDS011;41554;45.366;20.400;2022-12-18T04:06:21;43.85;;;24.20;;
55672;SDS011;41554;45.366;20.400;2022-12-18T04:08:47;36.75;;;18.98;;
55672;SDS011;41554;45.366;20.400;2022-12-18T04:11:14;36.45;;;21.33;;
55672;SDS011;41554;45.366;20.400;2022-12-18T04:13:41;36.92;;;25.88;;
55672;SDS011;41554;45.366;20.400;2022-12-18T04:16:08;29.33;;;22.65;;
55672;SDS011;41554;45.366;20.400;2022-12-18T04:18:35;39.00;;;22.73;;
55672;SDS011;41554;45.366;20.400;2022-12-18T04:21:01;31.38;;;19.90;;
55672;SDS011;41554;45.366;20.400;2022-12-18T04:23:27;39.53;;;21.70;;
55672;SDS011;41554;45.366;20.400;2022-12-18T04:25:53;41.78;;;24.10;;
55672;SDS011;41554;45.366;20.400;2022-12-18T04:28:20;33.90;;;25.15;;
55672;SDS011;41554;45.366;20.400;2022-12-18T04:30:46;31.05;;;20.75;;
55672;SDS011;41554;45.366;20.400;2022-12-18T04:33:12;41.60;;;22.38;;
55672;SDS011;41554;45.366;20.400;2022-12-18T04:35:39;38.65;;;22.33;;
55672;SDS011;41554;45.366;20.400;2022-12-18T04:38:06;39.08;;;22.60;;
55672;SDS011;41554;45.366;20.400;2022-12-18T04:40:33;41.20;;;22.40;;
55672;SDS011;41554;45.366;20.400;2022-12-18T04:42:59;44.17;;;25.15;;
55672;SDS011;41554;45.366;20.400;2022-12-18T04:45:25;34.13;;;21.20;;
55672;SDS011;41554;45.366;20.400;2022-12-18T04:47:51;38.13;;;22.23;;
55672;SDS011;41554;45.366;20.400;2022-12-18T04:50:16;37.20;;;21.80;;
55672;SDS011;41554;45.366;20.400;2022-12-18T04:52:42;36.00;;;23.45;;
55672;SDS011;41554;45.366;20.400;2022-12-18T04:55:08;32.20;;;20.83;;
55672;SDS011;41554;45.366;20.400;2022-12-18T04:57:33;39.72;;;23.50;;
55672;SDS011;41554;45.366;20.400;2022-12-18T04:59:59;43.53;;;26.45;;
55672;SDS011;41554;45.366;20.400;2022-12-18T05:02:25;32.10;;;22.48;;
55672;SDS011;41554;45.366;20.400;2022-12-18T05:04:51;33.08;;;23.05;;
55672;SDS011;41554;45.366;20.400;2022-12-18T05:07:16;40.92;;;23.73;;
55672;SDS011;41554;45.366;20.400;2022-12-18T05:09:42;35.38;;;26.50;;
55672;SDS011;41554;45.366;20.400;2022-12-18T05:12:08;35.13;;;24.13;;
55672;SDS011;41554;45.366;20.400;2022-12-18T05:14:34;39.97;;;25.45;;
55672;SDS011;41554;45.366;20.400;2022-12-18T05:17:00;38.33;;;24.05;;
55672;SDS011;41554;45.366;20.400;2022-12-18T05:19:26;36.25;;;23.60;;
55672;SDS011;41554;45.366;20.400;2022-12-18T05:21:52;36.22;;;22.10;;
55672;SDS011;41554;45.366;20.400;2022-12-18T05:24:18;37.30;;;24.77;;
55672;SDS011;41554;45.366;20.400;2022-12-18T05:26:44;36.67;;;23.42;;
55672;SDS011;41554;45.366;20.400;2022-12-18T05:29:10;36.55;;;23.02;;
55672;SDS011;41554;45.366;20.400;2022-12-18T05:31:37;39.55;;;21.90;;
55672;SDS011;41554;45.366;20.400;2022-12-18T05:34:04;38.63;;;22.38;;
55672;SDS011;41554;45.366;20.400;2022-12-18T05:36:30;43.35;;;25.13;;
55672;SDS011;41554;45.366;20.400;2022-12-18T05:38:55;43.03;;;26.27;;
55672;SDS011;41554;45.366;20.400;2022-12-18T05:41:21;36.47;;;23.60;;
55672;SDS011;41554;45.366;20.400;2022-12-18T05:43:47;32.90;;;21.25;;
55672;SDS011;41554;45.366;20.400;2022-12-18T05:46:14;43.88;;;27.88;;
55672;SDS011;41554;45.366;20.400;2022-12-18T05:48:41;34.60;;;22.63;;
55672;SDS011;41554;45.366;20.400;2022-12-18T05:51:09;42.05;;;25.27;;
55672;SDS011;41554;45.366;20.400;2022-12-18T05:53:39;33.08;;;22.88;;
55672;SDS011;41554;45.366;20.400;2022-12-18T05:56:07;30.80;;;23.40;;
55672;SDS011;41554;45.366;20.400;2022-12-18T05:58:38;43.45;;;25.95;;
55672;SDS011;41554;45.366;20.400;2022-12-18T06:01:08;34.42;;;22.75;;
55672;SDS011;41554;45.366;20.400;2022-12-18T06:03:36;46.35;;;29.38;;
55672;SDS011;41554;45.366;20.400;2022-12-18T06:06:02;36.42;;;24.95;;
55672;SDS011;41554;45.366;20.400;2022-12-18T06:08:28;47.53;;;25.75;;
55672;SDS011;41554;45.366;20.400;2022-12-18T06:10:54;38.92;;;26.50;;
55672;SDS011;41554;45.366;20.400;2022-12-18T06:13:20;43.17;;;28.20;;
55672;SDS011;41554;45.366;20.400;2022-12-18T06:15:46;39.33;;;24.98;;
55672;SDS011;41554;45.366;20.400;2022-12-18T06:18:12;43.72;;;26.00;;
55672;SDS011;41554;45.366;20.400;2022-12-18T06:20:38;43.47;;;28.08;;
55672;SDS011;41554;45.366;20.400;2022-12-18T06:23:05;38.33;;;25.08;;
55672;SDS011;41554;45.366;20.400;2022-12-18T06:25:31;45.22;;;26.15;;
55672;SDS011;41554;45.366;20.400;2022-12-18T06:27:58;39.05;;;26.75;;
55672;SDS011;41554;45.366;20.400;2022-12-18T06:30:23;46.88;;;28.02;;
55672;SDS011;41554;45.366;20.400;2022-12-18T06:32:50;52.53;;;32.15;;
55672;SDS011;41554;45.366;20.400;2022-12-18T06:35:16;47.38;;;30.27;;
55672;SDS011;41554;45.366;20.400;2022-12-18T06:37:41;42.40;;;26.42;;
55672;SDS011;41554;45.366;20.400;2022-12-18T06:40:07;42.42;;;27.08;;
55672;SDS011;41554;45.366;20.400;2022-12-18T06:42:33;39.63;;;26.73;;
55672;SDS011;41554;45.366;20.400;2022-12-18T06:44:59;39.53;;;26.58;;
55672;SDS011;41554;45.366;20.400;2022-12-18T06:47:25;59.55;;;33.17;;
55672;SDS011;41554;45.366;20.400;2022-12-18T06:49:50;49.05;;;29.13;;
55672;SDS011;41554;45.366;20.400;2022-12-18T06:52:16;50.70;;;29.05;;
55672;SDS011;41554;45.366;20.400;2022-12-18T06:54:42;49.00;;;30.30;;
55672;SDS011;41554;45.366;20.400;2022-12-18T06:57:08;42.47;;;29.23;;
55672;SDS011;41554;45.366;20.400;2022-12-18T06:59:33;54.20;;;30.58;;
55672;SDS011;41554;45.366;20.400;2022-12-18T07:01:59;44.20;;;25.25;;
55672;SDS011;41554;45.366;20.400;2022-12-18T07:04:28;39.30;;;25.98;;
55672;SDS011;41554;45.366;20.400;2022-12-18T07:06:54;44.65;;;26.98;;
55672;SDS011;41554;45.366;20.400;2022-12-18T07:09:20;48.42;;;30.25;;
55672;SDS011;41554;45.366;20.400;2022-12-18T07:11:46;43.38;;;25.30;;
55672;SDS011;41554;45.366;20.400;2022-12-18T07:14:11;48.78;;;28.25;;
55672;SDS011;41554;45.366;20.400;2022-12-18T07:16:37;48.28;;;30.23;;
55672;SDS011;41554;45.366;20.400;2022-12-18T07:19:03;59.13;;;34.33;;
55672;SDS011;41554;45.366;20.400;2022-12-18T07:21:28;43.28;;;29.20;;
55672;SDS011;41554;45.366;20.400;2022-12-18T07:23:54;49.10;;;28.70;;
55672;SDS011;41554;45.366;20.400;2022-12-18T07:26:20;45.10;;;27.08;;
55672;SDS011;41554;45.366;20.400;2022-12-18T07:28:46;42.22;;;25.58;;
55672;SDS011;41554;45.366;20.400;2022-12-18T07:31:16;49.70;;;31.15;;
55672;SDS011;41554;45.366;20.400;2022-12-18T07:33:44;45.55;;;24.98;;
55672;SDS011;41554;45.366;20.400;2022-12-18T07:36:10;47.83;;;31.15;;
55672;SDS011;41554;45.366;20.400;2022-12-18T07:38:37;50.95;;;28.98;;
55672;SDS011;41554;45.366;20.400;2022-12-18T07:41:03;45.78;;;27.60;;
55672;SDS011;41554;45.366;20.400;2022-12-18T07:43:30;40.40;;;28.77;;
55672;SDS011;41554;45.366;20.400;2022-12-18T07:45:56;36.55;;;26.65;;
55672;SDS011;41554;45.366;20.400;2022-12-18T07:48:22;45.78;;;28.80;;
55672;SDS011;41554;45.366;20.400;2022-12-18T07:50:47;49.53;;;27.30;;
55672;SDS011;41554;45.366;20.400;2022-12-18T07:53:13;47.10;;;30.65;;
55672;SDS011;41554;45.366;20.400;2022-12-18T07:55:39;46.13;;;30.08;;
55672;SDS011;41554;45.366;20.400;2022-12-18T07:58:06;51.05;;;27.77;;
55672;SDS011;41554;45.366;20.400;2022-12-18T08:00:32;53.92;;;29.77;;
55672;SDS011;41554;45.366;20.400;2022-12-18T08:02:58;50.13;;;32.47;;
55672;SDS011;41554;45.366;20.400;2022-12-18T08:05:24;53.03;;;33.22;;
55672;SDS011;41554;45.366;20.400;2022-12-18T08:07:50;44.75;;;25.83;;
55672;SDS011;41554;45.366;20.400;2022-12-18T08:10:16;50.33;;;30.58;;
55672;SDS011;41554;45.366;20.400;2022-12-18T08:12:42;56.65;;;33.95;;
55672;SDS011;41554;45.366;20.400;2022-12-18T08:15:08;55.65;;;33.55;;
55672;SDS011;41554;45.366;20.400;2022-12-18T08:17:34;47.58;;;29.38;;
55672;SDS011;41554;45.366;20.400;2022-12-18T08:20:00;43.40;;;31.13;;
55672;SDS011;41554;45.366;20.400;2022-12-18T08:22:26;49.53;;;31.50;;
55672;SDS011;41554;45.366;20.400;2022-12-18T08:24:52;47.05;;;30.45;;
55672;SDS011;41554;45.366;20.400;2022-12-18T08:27:18;56.10;;;30.08;;
55672;SDS011;41554;45.366;20.400;2022-12-18T08:29:44;55.15;;;32.05;;
55672;SDS011;41554;45.366;20.400;2022-12-18T08:32:11;57.22;;;33.17;;
55672;SDS011;41554;45.366;20.400;2022-12-18T08:34:37;52.78;;;30.08;;
55672;SDS011;41554;45.366;20.400;2022-12-18T08:37:03;48.85;;;28.70;;
55672;SDS011;41554;45.366;20.400;2022-12-18T08:39:28;56.20;;;31.52;;
55672;SDS011;41554;45.366;20.400;2022-12-18T08:41:54;47.30;;;29.92;;
55672;SDS011;41554;45.366;20.400;2022-12-18T08:44:39;46.90;;;30.27;;
55672;SDS011;41554;45.366;20.400;2022-12-18T08:47:05;141.65;;;82.15;;
55672;SDS011;41554;45.366;20.400;2022-12-18T08:49:31;170.43;;;98.05;;
55672;SDS011;41554;45.366;20.400;2022-12-18T08:51:58;104.85;;;67.82;;
55672;SDS011;41554;45.366;20.400;2022-12-18T08:54:24;94.47;;;61.75;;
55672;SDS011;41554;45.366;20.400;2022-12-18T08:56:50;105.70;;;71.15;;
55672;SDS011;41554;45.366;20.400;2022-12-18T08:59:16;104.78;;;63.20;;
55672;SDS011;41554;45.366;20.400;2022-12-18T09:01:43;171.48;;;107.13;;
55672;SDS011;41554;45.366;20.400;2022-12-18T09:04:09;96.65;;;67.15;;
55672;SDS011;41554;45.366;20.400;2022-12-18T09:06:35;53.40;;;34.72;;
55672;SDS011;41554;45.366;20.400;2022-12-18T09:09:01;58.92;;;36.10;;
55672;SDS011;41554;45.366;20.400;2022-12-18T09:11:28;57.60;;;36.65;;
55672;SDS011;41554;45.366;20.400;2022-12-18T09:13:54;71.68;;;49.15;;
55672;SDS011;41554;45.366;20.400;2022-12-18T09:16:21;78.85;;;50.20;;
55672;SDS011;41554;45.366;20.400;2022-12-18T09:18:48;78.30;;;48.38;;
55672;SDS011;41554;45.366;20.400;2022-12-18T09:21:15;62.28;;;40.58;;
55672;SDS011;41554;45.366;20.400;2022-12-18T09:23:42;53.80;;;36.75;;
55672;SDS011;41554;45.366;20.400;2022-12-18T09:26:07;70.20;;;46.40;;
55672;SDS011;41554;45.366;20.400;2022-12-18T09:28:34;99.80;;;64.80;;
55672;SDS011;41554;45.366;20.400;2022-12-18T09:31:03;82.03;;;50.03;;
55672;SDS011;41554;45.366;20.400;2022-12-18T09:33:29;167.33;;;124.13;;
55672;SDS011;41554;45.366;20.400;2022-12-18T09:35:55;156.40;;;109.53;;
55672;SDS011;41554;45.366;20.400;2022-12-18T09:38:21;65.32;;;37.92;;
55672;SDS011;41554;45.366;20.400;2022-12-18T09:40:49;62.28;;;41.63;;
55672;SDS011;41554;45.366;20.400;2022-12-18T09:43:17;74.68;;;47.10;;
55672;SDS011;41554;45.366;20.400;2022-12-18T09:45:45;67.45;;;44.65;;
55672;SDS011;41554;45.366;20.400;2022-12-18T09:48:22;71.30;;;45.05;;
55672;SDS011;41554;45.366;20.400;2022-12-18T09:50:50;60.03;;;36.95;;
55672;SDS011;41554;45.366;20.400;2022-12-18T09:53:18;70.38;;;51.67;;
55672;SDS011;41554;45.366;20.400;2022-12-18T09:55:45;54.05;;;37.75;;
55672;SDS011;41554;45.366;20.400;2022-12-18T09:58:18;54.42;;;34.10;;
55672;SDS011;41554;45.366;20.400;2022-12-18T10:00:45;53.97;;;32.95;;
55672;SDS011;41554;45.366;20.400;2022-12-18T10:03:12;64.50;;;43.20;;
55672;SDS011;41554;45.366;20.400;2022-12-18T10:05:45;66.25;;;43.33;;
55672;SDS011;41554;45.366;20.400;2022-12-18T10:08:25;55.67;;;32.42;;
55672;SDS011;41554;45.366;20.400;2022-12-18T10:11:29;57.35;;;31.42;;
55672;SDS011;41554;45.366;20.400;2022-12-18T10:14:01;56.90;;;34.83;;
55672;SDS011;41554;45.366;20.400;2022-12-18T10:16:32;55.50;;;37.95;;
55672;SDS011;41554;45.366;20.400;2022-12-18T10:26:42;62.38;;;35.25;;
55672;SDS011;41554;45.366;20.400;2022-12-18T10:29:12;64.75;;;35.05;;
55672;SDS011;41554;45.366;20.400;2022-12-18T10:31:39;58.08;;;41.00;;
55672;SDS011;41554;45.366;20.400;2022-12-18T10:34:12;59.15;;;36.28;;
55672;SDS011;41554;45.366;20.400;2022-12-18T10:36:38;56.08;;;33.78;;
55672;SDS011;41554;45.366;20.400;2022-12-18T10:39:24;58.50;;;36.42;;
55672;SDS011;41554;45.366;20.400;2022-12-18T10:41:51;59.53;;;35.03;;
55672;SDS011;41554;45.366;20.400;2022-12-18T10:46:44;60.50;;;41.65;;
55672;SDS011;41554;45.366;20.400;2022-12-18T10:49:46;61.28;;;38.85;;
55672;SDS011;41554;45.366;20.400;2022-12-18T10:52:25;50.22;;;34.55;;
55672;SDS011;41554;45.366;20.400;2022-12-18T10:54:51;46.63;;;30.50;;
55672;SDS011;41554;45.366;20.400;2022-12-18T10:59:51;57.25;;;33.53;;
55672;SDS011;41554;45.366;20.400;2022-12-18T11:02:36;64.13;;;34.75;;
55672;SDS011;41554;45.366;20.400;2022-12-18T11:05:04;59.45;;;34.92;;
55672;SDS011;41554;45.366;20.400;2022-12-18T11:07:49;57.97;;;34.30;;
55672;SDS011;41554;45.366;20.400;2022-12-18T11:10:19;56.92;;;35.80;;
55672;SDS011;41554;45.366;20.400;2022-12-18T11:12:45;83.30;;;42.80;;
55672;SDS011;41554;45.366;20.400;2022-12-18T11:15:16;55.13;;;34.00;;
55672;SDS011;41554;45.366;20.400;2022-12-18T11:17:44;65.25;;;37.20;;
55672;SDS011;41554;45.366;20.400;2022-12-18T11:22:44;53.58;;;34.25;;
55672;SDS011;41554;45.366;20.400;2022-12-18T11:25:20;47.95;;;32.08;;
55672;SDS011;41554;45.366;20.400;2022-12-18T11:27:50;61.33;;;35.78;;
55672;SDS011;41554;45.366;20.400;2022-12-18T11:30:21;53.42;;;33.28;;
55672;SDS011;41554;45.366;20.400;2022-12-18T11:33:01;55.67;;;34.22;;
55672;SDS011;41554;45.366;20.400;2022-12-18T11:43:28;54.60;;;34.22;;
55672;SDS011;41554;45.366;20.400;2022-12-18T11:45:59;62.95;;;34.63;;
55672;SDS011;41554;45.366;20.400;2022-12-18T11:48:30;66.50;;;35.55;;
55672;SDS011;41554;45.366;20.400;2022-12-18T11:50:58;57.33;;;38.55;;
55672;SDS011;41554;45.366;20.400;2022-12-18T11:53:26;65.07;;;37.88;;
55672;SDS011;41554;45.366;20.400;2022-12-18T12:08:36;94.00;;;57.92;;
55672;SDS011;41554;45.366;20.400;2022-12-18T12:11:27;98.95;;;69.80;;
55672;SDS011;41554;45.366;20.400;2022-12-18T12:21:54;63.72;;;35.10;;
55672;SDS011;41554;45.366;20.400;2022-12-18T12:24:37;56.58;;;38.22;;
55672;SDS011;41554;45.366;20.400;2022-12-18T12:32:28;64.43;;;34.97;;
55672;SDS011;41554;45.366;20.400;2022-12-18T12:37:40;53.28;;;32.60;;
55672;SDS011;41554;45.366;20.400;2022-12-18T12:40:11;56.72;;;38.30;;
55672;SDS011;41554;45.366;20.400;2022-12-18T12:42:41;64.43;;;36.78;;
55672;SDS011;41554;45.366;20.400;2022-12-18T12:45:38;62.85;;;38.13;;
55672;SDS011;41554;45.366;20.400;2022-12-18T12:48:07;59.43;;;39.77;;
55672;SDS011;41554;45.366;20.400;2022-12-18T12:50:37;67.38;;;44.55;;
55672;SDS011;41554;45.366;20.400;2022-12-18T12:53:05;75.85;;;43.67;;
55672;SDS011;41554;45.366;20.400;2022-12-18T12:55:33;66.55;;;37.20;;
55672;SDS011;41554;45.366;20.400;2022-12-18T12:58:02;60.70;;;35.50;;
55672;SDS011;41554;45.366;20.400;2022-12-18T13:00:36;54.50;;;33.42;;
55672;SDS011;41554;45.366;20.400;2022-12-18T13:05:56;57.58;;;39.10;;
55672;SDS011;41554;45.366;20.400;2022-12-18T13:10:50;69.88;;;37.22;;
55672;SDS011;41554;45.366;20.400;2022-12-18T13:16:14;94.45;;;55.65;;
55672;SDS011;41554;45.366;20.400;2022-12-18T13:18:50;96.55;;;62.80;;
55672;SDS011;41554;45.366;20.400;2022-12-18T13:21:24;57.72;;;39.50;;
55672;SDS011;41554;45.366;20.400;2022-12-18T13:23:52;71.45;;;38.42;;
55672;SDS011;41554;45.366;20.400;2022-12-18T13:34:19;77.47;;;53.70;;
55672;SDS011;41554;45.366;20.400;2022-12-18T13:36:44;80.30;;;44.67;;
55672;SDS011;41554;45.366;20.400;2022-12-18T13:41:36;52.55;;;38.22;;
55672;SDS011;41554;45.366;20.400;2022-12-18T13:51:39;122.65;;;81.70;;
55672;SDS011;41554;45.366;20.400;2022-12-18T13:56:52;84.38;;;51.03;;
55672;SDS011;41554;45.366;20.400;2022-12-18T14:01:51;103.45;;;69.57;;
55672;SDS011;41554;45.366;20.400;2022-12-18T14:04:19;79.45;;;48.47;;
55672;SDS011;41554;45.366;20.400;2022-12-18T14:06:45;130.93;;;79.65;;
55672;SDS011;41554;45.366;20.400;2022-12-18T14:09:15;120.70;;;81.22;;
55672;SDS011;41554;45.366;20.400;2022-12-18T14:11:47;133.48;;;84.35;;
55672;SDS011;41554;45.366;20.400;2022-12-18T14:14:14;228.05;;;142.00;;
55672;SDS011;41554;45.366;20.400;2022-12-18T14:16:40;152.32;;;95.68;;
55672;SDS011;41554;45.366;20.400;2022-12-18T14:19:25;115.07;;;71.30;;
55672;SDS011;41554;45.366;20.400;2022-12-18T14:21:51;81.90;;;44.83;;
55672;SDS011;41554;45.366;20.400;2022-12-18T14:24:19;134.40;;;87.80;;
55672;SDS011;41554;45.366;20.400;2022-12-18T14:26:46;176.75;;;108.88;;
55672;SDS011;41554;45.366;20.400;2022-12-18T14:29:25;156.52;;;99.45;;
55672;SDS011;41554;45.366;20.400;2022-12-18T14:34:36;138.55;;;87.30;;
55672;SDS011;41554;45.366;20.400;2022-12-18T14:37:02;164.43;;;104.35;;
55672;SDS011;41554;45.366;20.400;2022-12-18T14:39:28;236.07;;;163.90;;
55672;SDS011;41554;45.366;20.400;2022-12-18T14:41:54;311.55;;;206.40;;
55672;SDS011;41554;45.366;20.400;2022-12-18T14:44:20;212.15;;;133.77;;
55672;SDS011;41554;45.366;20.400;2022-12-18T14:46:47;141.90;;;91.10;;
55672;SDS011;41554;45.366;20.400;2022-12-18T14:51:42;128.05;;;80.35;;
55672;SDS011;41554;45.366;20.400;2022-12-18T14:54:16;134.07;;;85.22;;
55672;SDS011;41554;45.366;20.400;2022-12-18T14:59:35;124.55;;;76.75;;
55672;SDS011;41554;45.366;20.400;2022-12-18T15:02:10;215.88;;;134.23;;
55672;SDS011;41554;45.366;20.400;2022-12-18T15:04:41;110.68;;;66.95;;
55672;SDS011;41554;45.366;20.400;2022-12-18T15:07:16;112.50;;;68.55;;
55672;SDS011;41554;45.366;20.400;2022-12-18T15:10:00;133.00;;;87.03;;
55672;SDS011;41554;45.366;20.400;2022-12-18T15:12:29;96.85;;;55.78;;
55672;SDS011;41554;45.366;20.400;2022-12-18T15:14:58;112.43;;;65.10;;
55672;SDS011;41554;45.366;20.400;2022-12-18T15:17:24;127.97;;;85.13;;
55672;SDS011;41554;45.366;20.400;2022-12-18T15:19:51;103.13;;;58.72;;
55672;SDS011;41554;45.366;20.400;2022-12-18T15:24:45;87.90;;;53.22;;
55672;SDS011;41554;45.366;20.400;2022-12-18T15:29:59;87.10;;;57.20;;
55672;SDS011;41554;45.366;20.400;2022-12-18T15:32:26;133.98;;;91.43;;
55672;SDS011;41554;45.366;20.400;2022-12-18T15:35:01;67.35;;;45.05;;
55672;SDS011;41554;45.366;20.400;2022-12-18T15:37:27;104.78;;;65.35;;
55672;SDS011;41554;45.366;20.400;2022-12-18T15:39:53;104.88;;;71.72;;
55672;SDS011;41554;45.366;20.400;2022-12-18T15:42:19;112.43;;;76.22;;
55672;SDS011;41554;45.366;20.400;2022-12-18T15:45:04;112.10;;;78.55;;
55672;SDS011;41554;45.366;20.400;2022-12-18T15:47:30;84.53;;;52.28;;
55672;SDS011;41554;45.366;20.400;2022-12-18T15:49:57;90.97;;;54.40;;
55672;SDS011;41554;45.366;20.400;2022-12-18T15:52:23;97.43;;;58.33;;
55672;SDS011;41554;45.366;20.400;2022-12-18T15:54:51;63.53;;;39.25;;
55672;SDS011;41554;45.366;20.400;2022-12-18T15:57:36;75.05;;;48.47;;
55672;SDS011;41554;45.366;20.400;2022-12-18T16:00:02;70.45;;;43.78;;
55672;SDS011;41554;45.366;20.400;2022-12-18T16:02:28;65.88;;;40.80;;
55672;SDS011;41554;45.366;20.400;2022-12-18T16:04:54;71.57;;;44.70;;
55672;SDS011;41554;45.366;20.400;2022-12-18T16:07:20;57.90;;;36.38;;
55672;SDS011;41554;45.366;20.400;2022-12-18T16:09:47;57.13;;;35.65;;
55672;SDS011;41554;45.366;20.400;2022-12-18T16:12:17;74.07;;;43.53;;
55672;SDS011;41554;45.366;20.400;2022-12-18T16:14:43;56.97;;;35.75;;
55672;SDS011;41554;45.366;20.400;2022-12-18T16:17:10;75.45;;;45.35;;
55672;SDS011;41554;45.366;20.400;2022-12-18T16:19:37;78.97;;;54.90;;
55672;SDS011;41554;45.366;20.400;2022-12-18T16:22:03;86.78;;;50.83;;
55672;SDS011;41554;45.366;20.400;2022-12-18T16:24:30;84.53;;;49.80;;
55672;SDS011;41554;45.366;20.400;2022-12-18T16:26:57;87.25;;;53.78;;